createdAt,value
2023-10-02T00:01:12.479Z,107.97
2023-10-02T00:03:42.796Z,100.25
2023-10-02T00:06:11.694Z,101.43
2023-10-02T00:08:44.210Z,103.97
2023-10-02T00:11:32.952Z,102.15
2023-10-02T00:14:20.580Z,101.53
2023-10-02T00:17:05.193Z,96.80
2023-10-02T00:19:37.641Z,93.80
2023-10-02T00:22:10.324Z,90.60
2023-10-02T00:24:40.674Z,99.68
2023-10-02T00:27:11.619Z,94.00
2023-10-02T00:29:52.792Z,89.47
2023-10-02T00:32:21.872Z,92.25
2023-10-02T00:34:51.953Z,87.95
2023-10-02T00:37:19.949Z,92.00
2023-10-02T00:39:48.976Z,88.45
2023-10-02T00:42:17.548Z,94.05
2023-10-02T00:44:59.898Z,92.53
2023-10-02T00:47:46.658Z,92.05
2023-10-02T00:50:21.038Z,81.90
2023-10-02T00:52:55.888Z,85.07
2023-10-02T00:55:25.690Z,87.65
2023-10-02T00:57:57.867Z,88.95
2023-10-02T01:00:37.928Z,87.32
2023-10-02T01:03:10.444Z,89.28
2023-10-02T01:05:52.094Z,85.47
2023-10-02T01:08:42.731Z,91.95
2023-10-02T01:11:15.089Z,84.82
2023-10-02T01:13:46.180Z,83.22
2023-10-02T01:16:18.272Z,88.53
2023-10-02T01:18:49.667Z,85.85
2023-10-02T01:21:25.399Z,87.15
2023-10-02T01:26:52.411Z,75.05
2023-10-02T01:29:20.555Z,83.90
2023-10-02T01:31:53.176Z,82.63
2023-10-02T01:34:35.041Z,79.97
2023-10-02T01:37:24.681Z,73.35
2023-10-02T01:40:12.690Z,73.32
2023-10-02T01:42:41.901Z,73.82
2023-10-02T01:45:11.586Z,66.95
2023-10-02T01:47:42.512Z,77.85
2023-10-02T01:50:12.062Z,76.55
2023-10-02T01:52:51.308Z,79.30
2023-10-02T01:55:31.493Z,69.80
2023-10-02T01:58:18.243Z,74.32
2023-10-02T02:00:47.789Z,70.10
2023-10-02T02:03:20.008Z,67.63
2023-10-02T02:05:48.553Z,68.80
2023-10-02T02:08:25.256Z,79.78
2023-10-02T02:10:55.793Z,75.20
2023-10-02T02:13:25.025Z,72.90
2023-10-02T02:16:08.692Z,71.88
2023-10-02T02:18:36.720Z,70.68
2023-10-02T02:21:05.746Z,72.07
2023-10-02T02:23:33.694Z,75.28
2023-10-02T02:26:01.635Z,76.85
2023-10-02T02:28:31.453Z,80.93
2023-10-02T02:30:59.502Z,73.70
2023-10-02T02:33:39.346Z,75.00
2023-10-02T02:36:07.700Z,75.07
2023-10-02T02:38:35.915Z,75.18
2023-10-02T02:41:10.263Z,74.45
2023-10-02T02:43:39.846Z,64.88
2023-10-02T02:46:18.318Z,72.43
2023-10-02T02:48:46.966Z,72.47
2023-10-02T02:51:19.377Z,74.00
2023-10-02T02:53:48.385Z,76.82
2023-10-02T02:56:19.219Z,79.80
2023-10-02T02:58:51.300Z,75.90
2023-10-02T03:01:24.230Z,68.80
2023-10-02T03:03:52.943Z,74.55
2023-10-02T03:06:24.094Z,73.43
2023-10-02T03:08:53.000Z,80.18
2023-10-02T03:11:23.698Z,69.40
2023-10-02T03:13:53.978Z,74.25
2023-10-02T03:16:30.575Z,76.05
2023-10-02T03:19:04.921Z,79.30
2023-10-02T03:21:32.680Z,72.72
2023-10-02T03:24:02.433Z,80.82
2023-10-02T03:26:39.776Z,68.25
2023-10-02T03:29:12.840Z,79.25
2023-10-02T03:31:45.695Z,78.38
2023-10-02T03:34:35.228Z,74.47
2023-10-02T03:37:15.684Z,72.70
2023-10-02T03:40:00.608Z,68.60
2023-10-02T03:42:35.478Z,68.35
2023-10-02T03:45:06.259Z,72.45
2023-10-02T03:47:36.141Z,72.82
2023-10-02T03:50:06.330Z,73.47
2023-10-02T03:52:36.167Z,73.88
2023-10-02T03:55:15.878Z,74.70
2023-10-02T03:57:51.082Z,67.60
2023-10-02T04:00:23.746Z,70.57
2023-10-02T04:02:53.357Z,74.30
2023-10-02T04:05:35.272Z,71.10
2023-10-02T04:08:24.395Z,70.40
2023-10-02T04:10:57.139Z,69.90
2023-10-02T04:13:26.646Z,72.35
2023-10-02T04:16:16.206Z,76.75
2023-10-02T04:18:51.530Z,73.70
2023-10-02T04:21:24.238Z,65.72
2023-10-02T04:23:54.468Z,68.65
2023-10-02T04:26:23.265Z,70.53
2023-10-02T04:28:56.441Z,70.60
2023-10-02T04:31:29.806Z,75.80
2023-10-02T04:34:25.578Z,73.88
2023-10-02T04:36:52.672Z,69.97
2023-10-02T04:39:38.567Z,68.40
2023-10-02T04:42:13.657Z,71.40
2023-10-02T04:44:49.274Z,77.20
2023-10-02T04:47:18.993Z,68.38
2023-10-02T04:50:03.056Z,75.38
2023-10-02T04:52:52.150Z,69.90
2023-10-02T04:55:24.647Z,67.07
2023-10-02T04:57:55.405Z,64.68
2023-10-02T05:00:34.647Z,71.53
2023-10-02T05:03:22.652Z,68.63
2023-10-02T05:05:51.280Z,67.18
2023-10-02T05:08:22.616Z,67.55
2023-10-02T05:10:58.622Z,69.63
2023-10-02T05:13:44.102Z,67.97
2023-10-02T05:16:15.037Z,67.68
2023-10-02T05:18:45.674Z,65.38
2023-10-02T05:21:18.015Z,65.40
2023-10-02T05:23:57.574Z,65.72
2023-10-02T05:26:35.960Z,69.57
2023-10-02T05:29:09.287Z,67.53
2023-10-02T05:31:42.729Z,69.55
2023-10-02T05:34:19.833Z,66.80
2023-10-02T05:37:05.314Z,69.80
2023-10-02T05:39:35.559Z,70.72
2023-10-02T05:42:07.257Z,71.07
2023-10-02T05:44:35.963Z,68.00
2023-10-02T05:47:10.440Z,68.70
2023-10-02T05:49:44.794Z,71.10
2023-10-02T05:52:13.333Z,75.45
2023-10-02T05:54:48.326Z,75.30
2023-10-02T05:57:18.759Z,77.43
2023-10-02T05:59:49.538Z,75.97
2023-10-02T06:02:20.617Z,80.20
2023-10-02T06:04:53.990Z,77.53
2023-10-02T06:07:36.949Z,84.90
2023-10-02T06:10:08.623Z,74.57
2023-10-02T06:12:36.622Z,84.18
2023-10-02T06:15:11.295Z,79.60
2023-10-02T06:17:39.795Z,78.97
2023-10-02T06:20:19.562Z,80.22
2023-10-02T06:22:48.869Z,82.95
2023-10-02T06:25:19.324Z,81.53
2023-10-02T06:27:48.838Z,89.90
2023-10-02T06:30:18.211Z,81.55
2023-10-02T06:32:54.694Z,88.85
2023-10-02T06:35:28.626Z,87.85
2023-10-02T06:37:57.574Z,93.03
2023-10-02T06:40:25.309Z,84.18
2023-10-02T06:42:59.215Z,83.18
2023-10-02T06:45:30.434Z,82.88
2023-10-02T06:47:59.281Z,88.05
2023-10-02T06:50:31.605Z,87.85
2023-10-02T06:53:00.753Z,82.43
2023-10-02T06:55:30.557Z,87.43
2023-10-02T06:57:58.351Z,86.13
2023-10-02T07:00:37.899Z,85.72
2023-10-02T07:03:07.551Z,87.70
2023-10-02T07:05:36.836Z,82.50
2023-10-02T07:08:19.109Z,85.60
2023-10-02T07:10:48.967Z,89.45
2023-10-02T07:13:21.471Z,89.80
2023-10-02T07:15:54.519Z,95.13
2023-10-02T07:18:22.336Z,97.55
2023-10-02T07:20:54.922Z,96.32
2023-10-02T07:23:23.646Z,103.03
2023-10-02T07:25:52.617Z,98.90
2023-10-02T07:28:21.991Z,102.75
2023-10-02T07:30:51.902Z,108.70
2023-10-02T07:33:20.727Z,109.97
2023-10-02T07:35:55.715Z,116.15
2023-10-02T07:38:31.665Z,131.20
2023-10-02T07:41:08.133Z,139.80
2023-10-02T07:43:36.048Z,143.15
2023-10-02T07:46:15.948Z,149.75
2023-10-02T07:48:57.201Z,147.90
2023-10-02T07:51:32.280Z,156.85
2023-10-02T07:54:03.079Z,160.63
2023-10-02T07:56:31.098Z,162.27
2023-10-02T07:59:02.759Z,163.38
2023-10-02T08:01:35.772Z,154.73
2023-10-02T08:04:04.472Z,164.75
2023-10-02T08:06:38.827Z,166.35
2023-10-02T08:09:33.962Z,158.25
2023-10-02T08:12:01.993Z,158.88
2023-10-02T08:14:39.534Z,153.57
2023-10-02T08:17:19.998Z,146.57
2023-10-02T08:19:56.050Z,166.15
2023-10-02T08:22:24.834Z,172.38
2023-10-02T08:24:57.078Z,169.15
2023-10-02T08:27:24.903Z,181.70
2023-10-02T08:29:54.577Z,177.52
2023-10-02T08:32:30.375Z,169.80
2023-10-02T08:34:59.286Z,186.75
2023-10-02T08:37:29.604Z,191.05
2023-10-02T08:39:58.885Z,188.27
2023-10-02T08:42:26.658Z,182.07
2023-10-02T08:44:59.915Z,198.40
2023-10-02T08:47:29.286Z,181.63
2023-10-02T08:50:04.875Z,182.75
2023-10-02T08:52:42.821Z,180.13
2023-10-02T08:55:36.616Z,194.35
2023-10-02T08:58:17.460Z,178.70
2023-10-02T09:01:17.037Z,187.95
2023-10-02T09:04:23.051Z,182.63
2023-10-02T09:06:54.989Z,181.35
2023-10-02T09:09:27.797Z,201.10
2023-10-02T09:11:59.897Z,198.02
2023-10-02T09:14:42.242Z,198.00
2023-10-02T09:17:24.487Z,204.30
2023-10-02T09:19:56.484Z,203.30
2023-10-02T09:22:26.893Z,216.57
2023-10-02T09:25:11.339Z,208.80
2023-10-02T09:27:56.039Z,208.48
2023-10-02T09:30:41.756Z,211.95
2023-10-02T09:33:23.828Z,204.48
2023-10-02T09:36:45.483Z,214.10
2023-10-02T09:38:46.749Z,225.27
2023-10-02T09:41:17.409Z,218.52
2023-10-02T09:43:47.274Z,220.73
2023-10-02T09:46:18.040Z,217.15
2023-10-02T09:48:58.631Z,232.98
2023-10-02T09:51:47.033Z,214.30
2023-10-02T09:54:29.848Z,224.57
2023-10-02T09:57:06.937Z,225.85
2023-10-02T09:59:47.216Z,245.63
2023-10-02T10:02:37.982Z,237.73
2023-10-02T10:05:28.422Z,229.77
2023-10-02T10:08:20.781Z,241.13
2023-10-02T10:10:51.843Z,214.32
2023-10-02T10:13:33.286Z,214.75
2023-10-02T10:16:40.521Z,210.10
2023-10-02T10:19:32.099Z,200.63
2023-10-02T10:22:02.418Z,210.32
2023-10-02T10:24:36.942Z,184.02
2023-10-02T10:27:06.364Z,196.30
2023-10-02T10:29:42.242Z,191.07
2023-10-02T10:32:25.242Z,190.68
2023-10-02T10:35:13.184Z,173.20
2023-10-02T10:37:42.467Z,158.25
2023-10-02T10:40:42.530Z,147.23
2023-10-02T10:43:13.951Z,135.10
2023-10-02T10:45:43.178Z,137.35
2023-10-02T10:48:23.592Z,141.80
2023-10-02T10:51:00.490Z,130.05
2023-10-02T10:53:31.917Z,122.55
2023-10-02T10:56:07.119Z,138.73
2023-10-02T10:58:35.872Z,140.60
2023-10-02T11:01:08.559Z,138.00
2023-10-02T11:03:40.385Z,124.53
2023-10-02T11:06:11.001Z,134.02
2023-10-02T11:08:40.281Z,133.18
2023-10-02T11:11:12.546Z,128.02
2023-10-02T11:13:56.798Z,130.10
2023-10-02T11:16:31.633Z,131.05
2023-10-02T11:19:25.655Z,127.05
2023-10-02T11:22:20.148Z,122.85
2023-10-02T11:25:21.783Z,119.93
2023-10-02T11:27:59.252Z,116.80
2023-10-02T11:30:33.348Z,125.20
2023-10-02T11:33:04.314Z,116.03
2023-10-02T11:35:39.301Z,120.13
2023-10-02T11:38:08.509Z,116.28
2023-10-02T11:40:37.258Z,122.47
2023-10-02T11:43:05.538Z,123.70
2023-10-02T11:45:34.696Z,121.38
2023-10-02T11:48:02.770Z,128.15
2023-10-02T11:50:30.593Z,121.60
2023-10-02T11:53:00.835Z,114.30
2023-10-02T11:55:28.718Z,120.72
2023-10-02T11:57:56.621Z,118.88
2023-10-02T12:00:25.370Z,114.63
2023-10-02T12:02:53.777Z,124.88
2023-10-02T12:05:21.662Z,122.03
2023-10-02T12:07:49.564Z,127.28
2023-10-02T12:10:18.664Z,136.70
2023-10-02T12:12:46.935Z,132.45
2023-10-02T12:15:16.922Z,137.98
2023-10-02T12:17:45.723Z,141.18
2023-10-02T12:20:20.285Z,145.95
2023-10-02T12:22:48.634Z,144.93
2023-10-02T12:25:17.874Z,151.98
2023-10-02T12:27:46.334Z,148.52
2023-10-02T12:30:14.854Z,155.77
2023-10-02T12:32:42.777Z,158.23
2023-10-02T12:35:11.136Z,156.55
2023-10-02T12:37:39.122Z,172.15
2023-10-02T12:40:13.733Z,160.13
2023-10-02T12:42:42.841Z,150.32
2023-10-02T12:45:11.163Z,163.00
2023-10-02T12:47:40.211Z,168.50
2023-10-02T12:50:12.062Z,162.60
2023-10-02T12:52:40.521Z,161.70
2023-10-02T12:55:08.908Z,172.30
2023-10-02T12:57:40.874Z,161.52
2023-10-02T13:00:19.048Z,176.60
2023-10-02T13:02:47.831Z,171.73
2023-10-02T13:05:15.836Z,174.52
2023-10-02T13:07:46.917Z,176.25
2023-10-02T13:10:15.396Z,197.10
2023-10-02T13:12:43.745Z,190.60
2023-10-02T13:15:15.681Z,199.15
2023-10-02T13:17:44.085Z,199.70
2023-10-02T13:20:12.395Z,200.63
2023-10-02T13:22:41.103Z,217.68
2023-10-02T13:25:12.855Z,205.43
2023-10-02T13:27:41.407Z,214.23
2023-10-02T13:30:13.689Z,203.07
2023-10-02T13:32:42.130Z,207.25
2023-10-02T13:35:11.647Z,206.00
2023-10-02T13:37:41.294Z,206.13
2023-10-02T13:40:19.780Z,214.18
2023-10-02T13:42:50.783Z,216.02
2023-10-02T13:45:20.315Z,230.48
2023-10-02T13:47:48.491Z,221.05
2023-10-02T13:50:16.992Z,231.02
2023-10-02T13:52:45.336Z,237.98
2023-10-02T13:55:23.759Z,241.05
2023-10-02T13:57:51.967Z,237.93
2023-10-02T14:00:22.407Z,235.80
2023-10-02T14:02:50.588Z,235.23
2023-10-02T14:05:20.343Z,229.63
2023-10-02T14:07:49.624Z,230.20
2023-10-02T14:10:18.799Z,241.27
2023-10-02T14:12:47.442Z,238.43
2023-10-02T14:15:17.957Z,225.38
2023-10-02T14:17:47.597Z,217.35
2023-10-02T14:20:16.465Z,219.55
2023-10-02T14:22:45.958Z,231.65
2023-10-02T14:25:15.786Z,210.98
2023-10-02T14:27:44.070Z,213.00
2023-10-02T14:30:14.446Z,200.77
2023-10-02T14:32:47.827Z,205.73
2023-10-02T14:35:18.721Z,200.95
2023-10-02T14:37:49.468Z,192.75
2023-10-02T14:40:21.197Z,197.20
2023-10-02T14:42:50.212Z,202.07
2023-10-02T14:45:18.322Z,196.82
2023-10-02T14:47:46.030Z,194.57
2023-10-02T14:50:14.774Z,214.57
2023-10-02T14:52:43.882Z,222.20
2023-10-02T14:55:17.880Z,228.88
2023-10-02T14:57:46.833Z,222.43
2023-10-02T15:00:16.087Z,228.93
2023-10-02T15:02:44.155Z,211.20
2023-10-02T15:05:16.611Z,191.35
2023-10-02T15:07:46.961Z,172.63
2023-10-02T15:10:17.953Z,167.55
2023-10-02T15:12:46.730Z,161.55
2023-10-02T15:15:17.164Z,153.40
2023-10-02T15:17:46.912Z,154.50
2023-10-02T15:20:15.420Z,161.35
2023-10-02T15:22:44.238Z,157.93
2023-10-02T15:25:15.157Z,146.88
2023-10-02T15:27:44.926Z,139.85
2023-10-02T15:30:15.461Z,135.20
2023-10-02T15:32:43.985Z,138.18
2023-10-02T15:35:13.026Z,124.43
2023-10-02T15:37:41.146Z,121.88
2023-10-02T15:40:09.885Z,131.90
2023-10-02T15:42:40.173Z,133.50
2023-10-02T15:45:15.198Z,128.63
2023-10-02T15:47:46.054Z,142.10
2023-10-02T15:50:15.219Z,147.65
2023-10-02T15:52:43.636Z,160.30
2023-10-02T15:55:14.078Z,182.70
2023-10-02T15:57:44.716Z,171.82
2023-10-02T16:00:14.473Z,196.50
2023-10-02T16:02:45.302Z,194.65
2023-10-02T16:05:13.737Z,189.05
2023-10-02T16:07:41.758Z,201.07
2023-10-02T16:10:11.643Z,210.02
2023-10-02T16:12:40.337Z,228.00
2023-10-02T16:15:13.149Z,218.50
2023-10-02T16:17:41.524Z,226.00
2023-10-02T16:20:14.829Z,210.55
2023-10-02T16:22:43.111Z,214.30
2023-10-02T16:25:15.600Z,232.82
2023-10-02T16:27:46.667Z,216.70
2023-10-02T16:30:17.133Z,232.40
2023-10-02T16:32:47.547Z,225.82
2023-10-02T16:35:15.776Z,214.23
2023-10-02T16:37:43.964Z,231.27
2023-10-02T16:40:13.792Z,231.35
2023-10-02T16:42:41.706Z,216.02
2023-10-02T16:45:12.684Z,223.48
2023-10-02T16:47:42.054Z,208.93
2023-10-02T16:50:11.837Z,195.18
2023-10-02T16:52:44.614Z,193.75
2023-10-02T16:55:13.763Z,196.15
2023-10-02T16:57:43.638Z,190.70
2023-10-02T17:00:14.547Z,202.10
2023-10-02T17:02:44.935Z,185.35
2023-10-02T17:05:14.366Z,191.00
2023-10-02T17:07:43.210Z,201.88
2023-10-02T17:10:14.344Z,215.23
2023-10-02T17:12:42.651Z,192.77
2023-10-02T17:15:13.403Z,183.40
2023-10-02T17:17:44.935Z,206.60
2023-10-02T17:20:17.700Z,190.80
2023-10-02T17:22:45.812Z,195.98
2023-10-02T17:25:15.524Z,198.70
2023-10-02T17:27:43.983Z,197.07
2023-10-02T17:30:16.682Z,196.38
2023-10-02T17:32:45.804Z,201.23
2023-10-02T17:35:14.917Z,191.48
2023-10-02T17:37:42.643Z,185.50
2023-10-02T17:40:12.348Z,182.63
2023-10-02T17:42:40.098Z,172.75
2023-10-02T17:45:09.677Z,181.02
2023-10-02T17:47:37.902Z,182.60
2023-10-02T17:50:08.815Z,174.55
2023-10-02T17:52:36.513Z,177.27
2023-10-02T17:55:04.642Z,181.02
2023-10-02T17:57:32.319Z,174.02
2023-10-02T18:00:00.660Z,177.52
2023-10-02T18:02:29.138Z,176.07
2023-10-02T18:04:57.122Z,178.30
2023-10-02T18:07:29.483Z,169.32
2023-10-02T18:09:57.881Z,172.30
2023-10-02T18:12:25.672Z,177.57
2023-10-02T18:14:54.929Z,166.70
2023-10-02T18:17:22.655Z,175.93
2023-10-02T18:19:50.545Z,164.57
2023-10-02T18:22:18.233Z,165.63
2023-10-02T18:24:48.744Z,172.13
2023-10-02T18:27:16.492Z,158.02
2023-10-02T18:29:44.300Z,172.75
2023-10-02T18:32:13.412Z,167.98
2023-10-02T18:34:44.108Z,168.35
2023-10-02T18:37:12.850Z,169.45
2023-10-02T18:39:40.732Z,165.45
2023-10-02T18:42:10.801Z,168.80
2023-10-02T18:44:39.044Z,155.05
2023-10-02T18:47:08.415Z,164.93
2023-10-02T18:49:36.713Z,165.85
2023-10-02T18:52:05.356Z,160.95
2023-10-02T18:54:33.117Z,165.65
2023-10-02T18:57:01.418Z,154.18
2023-10-02T18:59:30.724Z,172.80
2023-10-02T19:01:58.909Z,176.38
2023-10-02T19:04:26.626Z,169.15
2023-10-02T19:06:56.357Z,167.05
2023-10-02T19:09:29.782Z,160.60
2023-10-02T19:11:57.799Z,160.30
2023-10-02T19:14:25.808Z,170.13
2023-10-02T19:16:55.042Z,179.20
2023-10-02T19:19:22.742Z,168.00
2023-10-02T19:21:51.793Z,185.13
2023-10-02T19:24:19.473Z,173.02
2023-10-02T19:26:47.409Z,171.07
2023-10-02T19:29:15.130Z,182.57
2023-10-02T19:31:42.874Z,183.55
2023-10-02T19:34:11.898Z,196.27
2023-10-02T19:36:39.916Z,198.75
2023-10-02T19:39:09.570Z,175.35
2023-10-02T19:41:37.522Z,181.55
2023-10-02T19:44:05.807Z,173.45
2023-10-02T19:46:35.568Z,176.40
2023-10-02T19:49:03.458Z,172.50
2023-10-02T19:51:33.346Z,166.32
2023-10-02T19:54:01.029Z,171.95
2023-10-02T19:56:29.080Z,174.82
2023-10-02T19:58:56.755Z,171.40
2023-10-02T20:01:24.744Z,169.57
2023-10-02T20:03:55.746Z,163.70
2023-10-02T20:06:24.867Z,151.15
2023-10-02T20:08:54.036Z,154.00
2023-10-02T20:11:24.081Z,153.30
2023-10-02T20:13:51.904Z,156.88
2023-10-02T20:16:19.677Z,156.15
2023-10-02T20:18:48.857Z,161.73
2023-10-02T20:21:17.927Z,159.40
2023-10-02T20:23:53.007Z,157.80
2023-10-02T20:26:22.924Z,162.70
2023-10-02T20:28:50.945Z,163.52
2023-10-02T20:31:19.045Z,173.32
2023-10-02T20:33:47.048Z,167.23
2023-10-02T20:36:14.762Z,155.40
2023-10-02T20:38:42.555Z,160.57
2023-10-02T20:41:10.657Z,171.93
2023-10-02T20:43:40.474Z,155.88
2023-10-02T20:46:14.337Z,163.45
2023-10-02T20:48:42.323Z,171.38
2023-10-02T20:51:10.688Z,174.55
2023-10-02T20:53:38.459Z,157.15
2023-10-02T20:56:07.817Z,171.13
2023-10-02T20:58:35.817Z,168.50
2023-10-02T21:01:09.345Z,162.43
2023-10-02T21:03:37.516Z,169.38
2023-10-02T21:06:07.193Z,153.35
2023-10-02T21:08:36.096Z,166.68
2023-10-02T21:11:04.370Z,163.00
2023-10-02T21:13:32.544Z,170.48
2023-10-02T21:16:00.224Z,155.52
2023-10-02T21:18:32.036Z,176.60
2023-10-02T21:20:59.881Z,172.73
2023-10-02T21:23:27.875Z,164.85
2023-10-02T21:25:55.572Z,165.90
2023-10-02T21:28:23.832Z,155.65
2023-10-02T21:30:51.608Z,168.98
2023-10-02T21:33:19.514Z,164.50
2023-10-02T21:35:49.689Z,159.35
2023-10-02T21:38:18.422Z,159.50
2023-10-02T21:40:46.123Z,163.27
2023-10-02T21:43:14.018Z,167.40
2023-10-02T21:45:41.735Z,169.00
2023-10-02T21:48:09.746Z,160.98
2023-10-02T21:50:37.662Z,160.35
2023-10-02T21:53:06.907Z,166.45
2023-10-02T21:55:35.207Z,167.10
2023-10-02T21:58:03.141Z,167.95
2023-10-02T22:00:47.363Z,155.80
2023-10-02T22:03:16.486Z,152.70
2023-10-02T22:05:44.616Z,168.60
2023-10-02T22:08:14.986Z,154.07
2023-10-02T22:10:43.718Z,154.65
2023-10-02T22:13:12.221Z,148.50
2023-10-02T22:15:41.037Z,147.10
2023-10-02T22:18:10.860Z,169.55
2023-10-02T22:20:44.745Z,148.63
2023-10-02T22:23:15.652Z,146.68
2023-10-02T22:25:45.352Z,154.43
2023-10-02T22:28:14.353Z,145.30
2023-10-02T22:30:43.863Z,150.55
2023-10-02T22:33:13.134Z,156.48
2023-10-02T22:35:42.779Z,154.27
2023-10-02T22:38:11.381Z,153.98
2023-10-02T22:40:40.720Z,146.35
2023-10-02T22:43:08.517Z,145.75
2023-10-02T22:45:39.392Z,147.90
2023-10-02T22:48:10.471Z,159.30
2023-10-02T22:50:40.330Z,140.63
2023-10-02T22:53:08.919Z,144.10
2023-10-02T22:55:39.680Z,153.30
2023-10-02T22:58:08.850Z,146.35
2023-10-02T23:00:37.412Z,146.88
2023-10-02T23:03:07.713Z,139.55
2023-10-02T23:05:38.251Z,147.13
2023-10-02T23:08:08.107Z,149.93
2023-10-02T23:10:36.675Z,145.70
2023-10-02T23:13:05.227Z,141.02
2023-10-02T23:15:39.641Z,144.00
2023-10-02T23:18:08.303Z,154.57
2023-10-02T23:20:36.965Z,145.98
2023-10-02T23:23:05.273Z,143.60
2023-10-02T23:25:34.053Z,147.20
2023-10-02T23:28:01.969Z,147.65
2023-10-02T23:30:29.943Z,149.73
2023-10-02T23:33:00.647Z,144.45
2023-10-02T23:35:29.433Z,148.70
2023-10-02T23:37:58.098Z,140.52
2023-10-02T23:40:26.195Z,141.70
2023-10-02T23:42:59.902Z,152.90
2023-10-02T23:45:28.892Z,132.85
2023-10-02T23:48:01.889Z,134.32
2023-10-02T23:50:33.717Z,138.68
2023-10-02T23:53:03.090Z,150.05
2023-10-02T23:55:30.843Z,137.00
2023-10-02T23:57:59.587Z,140.45
